Time;durP1;ratioP1;P1;durP2;ratioP2;P2;SDS_P1;SDS_P2;PMS_P1;PMS_P2;Temp;Humidity;BMP_temperature;BMP_pressure;BME280_temperature;BME280_humidity;BME280_pressure;Samples;Min_cycle;Max_cycle;Signal;HPM_P1;HPM_P2
2021/11/14 00:34:05;;;;;;;54.97;32.63;;;;;;;4.57;100.00;100815.94;20854931;27;21084;-58
2021/11/14 01:23:55;;;;;;;70.20;35.40;;;;;;;4.79;100.00;100807.31;20996755;27;20728;-62
2021/11/14 01:53:51;;;;;;;56.80;32.93;;;;;;;5.01;100.00;100832.13;20916328;27;20595;-59
2021/11/14 02:23:48;;;;;;;59.93;32.47;;;;;;;5.15;100.00;100842.25;21017069;27;20314;-59
2021/11/14 02:33:51;;;;;;;65.93;34.93;;;;;;;5.21;100.00;100852.63;21056506;28;20363;-60
2021/11/14 02:53:51;;;;;;;67.40;35.47;;;;;;;5.10;100.00;100855.63;20952159;27;1357727;-62
2021/11/14 03:33:47;;;;;;;56.23;32.13;;;;;;;4.85;100.00;100881.13;21144841;27;20576;-62
2021/11/14 03:43:52;;;;;;;47.40;28.57;;;;;;;4.85;100.00;100886.44;21146855;27;20229;-59
2021/11/14 03:53:56;;;;;;;49.80;28.47;;;;;;;4.93;100.00;100889.72;21141448;27;20720;-62
2021/11/14 04:14:00;;;;;;;41.53;25.87;;;;;;;4.98;100.00;100914.22;20945591;27;20620;-58
2021/11/14 04:24:04;;;;;;;40.80;22.93;;;;;;;4.96;100.00;100921.31;20964130;27;20227;-58
2021/11/14 04:34:07;;;;;;;45.40;27.97;;;;;;;4.78;100.00;100911.34;20951860;27;20227;-60
2021/11/14 04:44:12;;;;;;;41.10;25.00;;;;;;;4.72;100.00;100918.53;20908917;28;20235;-63
2021/11/14 05:04:13;;;;;;;49.43;27.00;;;;;;;4.77;100.00;100946.63;20871063;27;20308;-62
2021/11/14 05:14:18;;;;;;;41.87;24.37;;;;;;;4.79;100.00;100960.66;20898540;28;20230;-62
2021/11/14 05:24:21;;;;;;;49.73;28.67;;;;;;;4.77;100.00;100978.34;20866012;28;20223;-62
2021/11/14 05:34:24;;;;;;;38.57;24.10;;;;;;;4.78;100.00;100982.72;20889441;28;20231;-61
2021/11/14 05:44:27;;;;;;;41.50;24.97;;;;;;;4.92;100.00;100988.47;20861635;28;20234;-60
2021/11/14 06:04:34;;;;;;;42.00;25.03;;;;;;;4.95;100.00;100999.81;21116436;27;20675;-59
2021/11/14 06:34:28;;;;;;;39.87;23.60;;;;;;;4.98;100.00;101030.59;20920510;27;20559;-63
2021/11/14 06:44:32;;;;;;;38.50;23.87;;;;;;;5.10;100.00;101055.81;20909764;28;20231;-62
2021/11/14 06:54:35;;;;;;;45.47;26.20;;;;;;;5.03;100.00;101060.44;20907943;28;20230;-59
2021/11/14 07:14:35;;;;;;;36.73;24.00;;;;;;;5.28;100.00;101094.97;20989755;27;20591;-57
2021/11/14 07:34:35;;;;;;;39.87;27.23;;;;;;;5.31;100.00;101108.94;20914124;27;20584;-61
2021/11/14 08:04:31;;;;;;;51.77;33.30;;;;;;;5.36;100.00;101144.09;20967427;27;20322;-61
2021/11/14 08:24:41;;;;;;;57.13;33.40;;;;;;;5.12;100.00;101160.69;20984145;27;1377670;-61
2021/11/14 08:34:46;;;;;;;46.33;28.47;;;;;;;5.12;100.00;101167.75;21017688;28;20312;-63
2021/11/14 08:44:50;;;;;;;47.07;29.17;;;;;;;5.14;100.00;101187.97;20998862;28;20244;-64
2021/11/14 08:54:54;;;;;;;43.13;27.87;;;;;;;5.13;100.00;101196.81;21035628;28;20237;-63
2021/11/14 09:24:56;;;;;;;30.63;22.57;;;;;;;5.70;100.00;101201.31;21013826;27;20728;-63
2021/11/14 09:35:00;;;;;;;30.93;23.27;;;;;;;5.86;100.00;101221.13;20947622;27;20704;-61
2021/11/14 09:55:02;;;;;;;28.13;21.00;;;;;;;6.38;100.00;101233.66;21129444;27;20654;-62
2021/11/14 10:05:08;;;;;;;34.03;22.93;;;;;;;6.35;100.00;101240.84;21147271;27;20229;-60
2021/11/14 10:15:25;;;;;;;37.33;26.33;;;;;;;6.25;100.00;101248.22;21161060;27;20225;-60
2021/11/14 10:25:29;;;;;;;40.50;30.57;;;;;;;6.09;100.00;101253.13;21154353;27;20281;-64
2021/11/14 10:35:33;;;;;;;43.10;30.10;;;;;;;6.07;100.00;101254.06;21159104;27;20339;-60
2021/11/14 10:45:41;;;;;;;45.03;32.10;;;;;;;5.97;100.00;101253.50;21159327;27;20233;-61
2021/11/14 10:55:49;;;;;;;54.73;33.70;;;;;;;5.86;100.00;101254.69;21186166;27;20243;-59
2021/11/14 11:05:52;;;;;;;51.50;32.47;;;;;;;5.92;100.00;101259.84;21155950;27;20318;-60
2021/11/14 11:15:57;;;;;;;46.83;31.33;;;;;;;6.05;100.00;101262.06;21143882;27;20768;-58
2021/11/14 11:26:03;;;;;;;46.80;28.77;;;;;;;5.96;100.00;101248.25;21162045;28;20264;-58
2021/11/14 11:36:08;;;;;;;37.60;24.83;;;;;;;6.17;100.00;101271.41;21162609;27;20627;-59
2021/11/14 11:46:29;;;;;;;35.47;23.87;;;;;;;6.23;100.00;101288.94;21160800;27;20246;-58
2021/11/14 11:56:41;;;;;;;35.83;24.50;;;;;;;6.30;100.00;101293.13;21160972;27;20710;-59
2021/11/14 12:06:57;;;;;;;32.50;23.57;;;;;;;6.42;100.00;101303.34;21160508;27;20300;-58
2021/11/14 12:17:10;;;;;;;38.57;27.10;;;;;;;6.49;100.00;101315.50;21158698;28;20617;-57
2021/11/14 12:27:32;;;;;;;32.23;23.03;;;;;;;6.73;100.00;101333.28;21158657;27;20229;-58
2021/11/14 12:37:46;;;;;;;38.73;25.87;;;;;;;6.83;100.00;101336.50;21158416;28;20695;-58
2021/11/14 12:47:50;;;;;;;33.33;25.03;;;;;;;6.78;100.00;101349.03;21155812;28;20221;-57
2021/11/14 12:58:02;;;;;;;38.10;25.10;;;;;;;6.56;100.00;101353.28;21155101;28;20296;-57
2021/11/14 13:08:05;;;;;;;36.53;25.10;;;;;;;6.41;100.00;101352.84;21155601;27;20238;-57
2021/11/14 13:18:09;;;;;;;47.60;30.20;;;;;;;6.31;100.00;101366.44;21153648;28;20222;-57
2021/11/14 13:28:12;;;;;;;46.60;28.50;;;;;;;6.12;100.00;101368.75;21154213;28;20312;-57
2021/11/14 13:38:16;;;;;;;53.77;31.77;;;;;;;5.72;100.00;101359.25;21153948;28;20765;-57
2021/11/14 13:48:19;;;;;;;57.07;31.17;;;;;;;5.54;100.00;101385.38;21150127;27;20229;-56
2021/11/14 13:58:24;;;;;;;62.23;34.50;;;;;;;5.35;100.00;101393.78;21151669;27;20221;-58
2021/11/14 14:08:30;;;;;;;69.80;38.70;;;;;;;5.30;100.00;101414.22;21150780;27;20343;-56
2021/11/14 14:18:38;;;;;;;60.40;35.67;;;;;;;5.26;100.00;101423.13;21150851;27;20253;-57
2021/11/14 14:28:42;;;;;;;62.70;35.73;;;;;;;5.26;100.00;101436.38;21116842;27;20304;-56
2021/11/14 14:38:45;;;;;;;46.27;28.23;;;;;;;5.25;100.00;101450.50;21162291;27;20221;-56
2021/11/14 14:48:50;;;;;;;51.60;29.13;;;;;;;5.27;100.00;101446.06;21165463;27;20726;-57
2021/11/14 14:59:05;;;;;;;44.03;26.23;;;;;;;5.18;100.00;101435.69;21165852;27;21195;-56
2021/11/14 15:09:22;;;;;;;53.50;31.57;;;;;;;5.31;100.00;101479.44;21163887;27;20308;-57
2021/11/14 15:20:14;;;;;;;59.80;34.77;;;;;;;5.19;100.00;101485.06;21164671;27;20221;-58
2021/11/14 15:30:24;;;;;;;61.43;33.97;;;;;;;5.05;100.00;101498.63;21163529;27;20606;-57
2021/11/14 15:40:29;;;;;;;54.83;34.07;;;;;;;4.94;100.00;101513.00;21162923;27;20221;-57
2021/11/14 15:50:33;;;;;;;68.97;38.57;;;;;;;4.80;100.00;101537.09;21160370;27;20252;-57
2021/11/14 16:00:39;;;;;;;60.13;35.30;;;;;;;4.70;100.00;101532.91;21159917;27;20213;-57
2021/11/14 16:10:43;;;;;;;71.63;38.13;;;;;;;4.71;100.00;101550.47;21159452;27;20729;-56
2021/11/14 16:20:46;;;;;;;66.03;39.70;;;;;;;4.65;100.00;101556.78;21158356;27;20221;-58
2021/11/14 16:30:49;;;;;;;59.33;35.37;;;;;;;4.65;100.00;101566.47;21139960;27;20304;-58
2021/11/14 16:40:53;;;;;;;75.63;42.53;;;;;;;4.62;100.00;101561.25;21158239;27;20231;-57
2021/11/14 16:50:58;;;;;;;61.33;38.23;;;;;;;4.67;100.00;101570.84;21155876;27;20251;-59
2021/11/14 17:01:01;;;;;;;52.17;32.30;;;;;;;4.76;100.00;101584.75;21154830;27;20300;-57
2021/11/14 17:11:05;;;;;;;68.50;39.67;;;;;;;4.79;100.00;101598.81;21155425;27;20225;-59
2021/11/14 17:21:09;;;;;;;67.67;35.83;;;;;;;4.83;100.00;101611.03;21155204;27;20252;-59
2021/11/14 17:31:12;;;;;;;62.63;34.30;;;;;;;4.84;100.00;101625.13;21152680;27;20300;-58
2021/11/14 17:41:16;;;;;;;61.37;33.50;;;;;;;4.80;100.00;101628.78;21093389;27;20305;-59
2021/11/14 17:51:20;;;;;;;63.50;35.93;;;;;;;4.79;100.00;101634.97;21094971;27;21554;-58
2021/11/14 18:01:23;;;;;;;63.07;34.13;;;;;;;4.74;100.00;101642.09;21094026;27;20781;-59
2021/11/14 18:11:32;;;;;;;54.13;32.03;;;;;;;4.70;100.00;101650.09;21097144;27;20374;-57
2021/11/14 18:21:36;;;;;;;44.37;26.83;;;;;;;4.68;100.00;101657.19;21107262;27;20228;-59
2021/11/14 18:31:41;;;;;;;54.80;31.23;;;;;;;4.63;100.00;101664.31;21101378;27;20229;-59
2021/11/14 18:41:45;;;;;;;52.47;29.57;;;;;;;4.59;100.00;101678.50;21105027;27;20806;-59
2021/11/14 18:51:50;;;;;;;48.17;28.53;;;;;;;4.55;100.00;101678.59;21105350;27;20225;-58
2021/11/14 19:01:53;;;;;;;51.43;28.83;;;;;;;4.52;100.00;101692.72;21101492;27;21498;-57
2021/11/14 19:11:59;;;;;;;56.90;30.67;;;;;;;4.52;100.00;101703.31;21103533;27;20922;-59
2021/11/14 19:22:05;;;;;;;52.27;30.00;;;;;;;4.55;100.00;101718.25;21100793;27;20302;-60
2021/11/14 19:32:11;;;;;;;53.00;31.47;;;;;;;4.55;100.00;101734.97;21101763;27;20228;-60
2021/11/14 19:42:18;;;;;;;47.90;28.90;;;;;;;4.57;100.00;101737.59;21102933;27;20240;-62
2021/11/14 19:52:22;;;;;;;54.93;29.67;;;;;;;4.53;100.00;101752.63;21082432;27;21768;-60
2021/11/14 20:02:26;;;;;;;60.57;31.67;;;;;;;4.47;100.00;101773.88;21100540;27;20293;-62
2021/11/14 20:12:30;;;;;;;61.53;34.07;;;;;;;4.45;100.00;101785.38;21097689;27;20298;-60
2021/11/14 20:22:34;;;;;;;66.23;32.47;;;;;;;4.44;100.00;101805.66;21099435;27;20242;-62
2021/11/14 20:32:40;;;;;;;63.33;32.27;;;;;;;4.41;100.00;101805.69;21096375;27;20230;-59
2021/11/14 20:42:43;;;;;;;65.93;31.80;;;;;;;4.39;100.00;101812.75;21093175;27;20976;-58
2021/11/14 20:52:49;;;;;;;60.80;31.33;;;;;;;4.32;100.00;101824.34;21095347;27;20233;-59
2021/11/14 21:02:52;;;;;;;75.57;33.67;;;;;;;4.27;100.00;101828.78;21093398;27;20225;-62
2021/11/14 21:12:56;;;;;;;70.83;28.57;;;;;;;4.26;100.00;101824.41;21094151;27;20317;-59
2021/11/14 21:22:59;;;;;;;76.77;30.17;;;;;;;4.28;100.00;101810.28;21092811;27;20221;-58
2021/11/14 21:33:09;;;;;;;72.20;29.90;;;;;;;4.37;100.00;101819.84;21040049;27;20251;-59
2021/11/14 21:43:15;;;;;;;74.23;31.50;;;;;;;4.39;100.00;101815.41;21115199;27;20212;-58
2021/11/14 21:53:19;;;;;;;95.37;34.73;;;;;;;4.42;100.00;101828.59;21054819;28;20230;-58
2021/11/14 22:03:22;;;;;;;101.37;34.33;;;;;;;4.49;100.00;101845.22;21067185;28;20386;-61
2021/11/14 22:13:38;;;;;;;66.03;28.63;;;;;;;4.48;100.00;101849.63;21129572;27;20235;-59
2021/11/14 22:23:42;;;;;;;72.37;30.43;;;;;;;4.46;100.00;101854.09;21206909;27;20238;-57
2021/11/14 22:33:45;;;;;;;64.47;28.27;;;;;;;4.44;100.00;101874.38;21235902;27;20252;-56
2021/11/14 22:43:49;;;;;;;61.17;26.97;;;;;;;4.47;100.00;101869.03;21233932;27;20225;-56
2021/11/14 22:53:52;;;;;;;70.93;29.50;;;;;;;4.49;100.00;101871.66;21232675;27;20237;-57
2021/11/14 23:03:56;;;;;;;79.37;33.13;;;;;;;4.48;100.00;101876.06;21250538;27;20307;-56
2021/11/14 23:14:00;;;;;;;59.80;28.07;;;;;;;4.52;100.00;101883.06;21249702;27;20638;-56
2021/11/14 23:24:15;;;;;;;61.20;29.60;;;;;;;4.56;100.00;101887.41;21247610;27;20642;-56
2021/11/14 23:34:18;;;;;;;63.53;31.63;;;;;;;4.59;100.00;101895.28;21215637;27;20221;-56
2021/11/14 23:44:26;;;;;;;65.60;29.77;;;;;;;4.62;100.00;101900.53;21161852;27;20237;-56
2021/11/14 23:54:29;;;;;;;80.60;35.73;;;;;;;4.62;100.00;101884.66;21161042;27;20229;-56
